Time;durP1;ratioP1;P1;durP2;ratioP2;P2;SDS_P1;SDS_P2;PMS_P1;PMS_P2;Temp;Humidity;BMP_temperature;BMP_pressure;BME280_temperature;BME280_humidity;BME280_pressure;Samples;Min_cycle;Max_cycle;Signal;HPM_P1;HPM_P2
2023/03/17 00:05:57;;;;;;;368.30;127.30;;;;;;;2.29;69.95;101198.59;682558;1263;139213;-84
2023/03/17 00:21:00;;;;;;;340.50;120.70;;;;;;;2.25;70.48;101193.08;682509;1261;139300;-85
2023/03/17 00:36:05;;;;;;;275.10;103.80;;;;;;;2.25;70.66;101190.63;682538;1262;139123;-84
2023/03/17 00:51:09;;;;;;;310.90;109.10;;;;;;;2.02;71.26;101176.85;682424;1263;139433;-85
2023/03/17 01:06:14;;;;;;;346.70;126.80;;;;;;;1.95;71.53;101177.65;682702;1260;139017;-83
2023/03/17 01:21:17;;;;;;;275.60;103.00;;;;;;;1.91;72.10;101181.92;682664;1260;139596;-83
2023/03/17 01:36:21;;;;;;;292.50;98.70;;;;;;;1.82;72.19;101174.31;682698;1264;139342;-85
2023/03/17 01:51:41;;;;;;;246.20;96.40;;;;;;;1.76;72.06;101167.46;682264;1263;139208;-83
2023/03/17 02:06:48;;;;;;;246.80;101.40;;;;;;;1.64;72.07;101171.34;682794;1263;138939;-82
2023/03/17 02:22:01;;;;;;;185.40;69.40;;;;;;;1.73;72.15;101175.84;682374;1264;139788;-82
2023/03/17 02:37:06;;;;;;;306.10;112.30;;;;;;;1.81;72.45;101180.05;682559;1261;139319;-83
2023/03/17 02:52:10;;;;;;;237.50;92.30;;;;;;;1.98;72.20;101184.41;682481;1262;139270;-82
2023/03/17 03:07:13;;;;;;;64.80;31.90;;;;;;;2.06;72.70;101169.09;682584;1259;139396;-82
2023/03/17 03:22:17;;;;;;;172.10;65.20;;;;;;;2.56;74.05;101161.11;682531;1261;139349;-82
2023/03/17 03:37:20;;;;;;;140.50;51.40;;;;;;;2.75;73.90;101153.75;682266;1259;139243;-83
2023/03/17 03:52:23;;;;;;;137.30;55.40;;;;;;;2.82;74.06;101141.57;682271;1260;165813;-83
2023/03/17 04:07:26;;;;;;;37.90;18.10;;;;;;;3.08;74.96;101127.33;682232;1260;139199;-83
2023/03/17 04:22:30;;;;;;;107.70;46.90;;;;;;;3.41;76.15;101151.80;682305;1264;138862;-82
2023/03/17 04:37:33;;;;;;;76.10;33.30;;;;;;;3.27;75.69;101166.98;682256;1260;138909;-84
2023/03/17 04:52:37;;;;;;;35.00;17.60;;;;;;;3.31;77.24;101165.73;682529;1260;138725;-83
2023/03/17 05:07:41;;;;;;;39.40;17.10;;;;;;;3.59;77.97;101152.93;682592;1262;138901;-84
2023/03/17 05:22:44;;;;;;;57.00;25.40;;;;;;;3.81;77.82;101165.59;682320;1259;138776;-82
2023/03/17 05:37:47;;;;;;;45.20;24.50;;;;;;;3.98;78.19;101174.86;682429;1263;139205;-83
2023/03/17 05:52:51;;;;;;;42.70;22.00;;;;;;;4.02;78.69;101175.56;682638;1260;138946;-83
2023/03/17 06:07:54;;;;;;;57.50;27.00;;;;;;;4.10;78.96;101172.41;682456;1259;138645;-83
2023/03/17 06:22:59;;;;;;;67.20;31.30;;;;;;;4.19;79.06;101174.23;682560;1260;139273;-82
2023/03/17 06:38:07;;;;;;;119.10;45.80;;;;;;;4.35;79.28;101172.30;682347;1264;139913;-82
2023/03/17 06:53:10;;;;;;;240.90;90.00;;;;;;;4.66;78.61;101188.96;682230;1265;139058;-82
2023/03/17 07:08:13;;;;;;;176.20;63.10;;;;;;;4.83;78.69;101174.29;682297;1264;139618;-83
2023/03/17 07:23:21;;;;;;;104.00;42.20;;;;;;;5.07;78.37;101172.78;682389;1264;138802;-84
2023/03/17 07:38:25;;;;;;;210.10;70.00;;;;;;;5.22;78.10;101171.30;682397;1262;138928;-84
2023/03/17 07:53:28;;;;;;;167.90;53.00;;;;;;;5.65;78.20;101181.17;682555;1263;139138;-84
2023/03/17 08:08:31;;;;;;;214.80;67.70;;;;;;;5.83;76.94;101192.73;682598;1263;138985;-83
2023/03/17 08:23:35;;;;;;;198.60;84.70;;;;;;;6.22;76.70;101194.66;682700;1265;139049;-85
2023/03/17 08:38:40;;;;;;;327.40;92.10;;;;;;;6.75;76.27;101200.90;682528;1262;139764;-85
2023/03/17 08:53:43;;;;;;;43.40;20.20;;;;;;;8.00;75.12;101184.23;682662;1264;139436;-84
2023/03/17 09:08:53;;;;;;;46.30;19.70;;;;;;;9.09;71.35;101187.48;682621;1259;138895;-83
2023/03/17 09:23:57;;;;;;;30.90;14.80;;;;;;;9.57;67.60;101176.09;682706;1261;138670;-83
2023/03/17 09:39:04;;;;;;;149.40;38.00;;;;;;;9.21;65.45;101156.52;682640;1259;139106;-83
2023/03/17 09:54:17;;;;;;;64.80;24.90;;;;;;;9.58;65.09;101151.14;682742;1259;139092;-83
2023/03/17 10:09:27;;;;;;;237.50;100.90;;;;;;;9.80;63.62;101130.41;682461;1264;139002;-82
2023/03/17 10:24:32;;;;;;;48.90;20.40;;;;;;;9.86;62.34;101119.86;682439;1264;139685;-87
2023/03/17 10:39:47;;;;;;;28.90;13.50;;;;;;;10.53;59.63;101092.61;682535;1264;139194;-84
2023/03/17 10:54:51;;;;;;;21.60;9.60;;;;;;;11.38;57.31;101071.61;682618;1262;139439;-83
2023/03/17 11:10:00;;;;;;;14.70;8.60;;;;;;;11.73;54.67;101056.45;682419;1262;138310;-85
2023/03/17 11:25:18;;;;;;;14.00;9.10;;;;;;;12.11;53.22;101046.65;682470;1262;138325;-82
2023/03/17 11:40:33;;;;;;;15.50;7.90;;;;;;;12.76;51.31;101029.02;682728;1264;138324;-83
2023/03/17 11:55:48;;;;;;;12.80;7.40;;;;;;;12.82;49.74;100997.11;682640;1264;138377;-83
2023/03/17 12:10:55;;;;;;;18.40;10.10;;;;;;;12.39;50.40;100987.05;682647;1262;138103;-84
2023/03/17 12:26:09;;;;;;;24.40;13.80;;;;;;;12.75;49.67;100960.15;682388;1262;138851;-86
2023/03/17 12:41:49;;;;;;;50.10;21.30;;;;;;;12.93;48.15;100950.16;682418;1264;138977;-84
2023/03/17 12:57:01;;;;;;;45.40;24.90;;;;;;;13.49;48.15;100905.23;682617;1261;137952;-83
2023/03/17 13:12:05;;;;;;;17.70;8.90;;;;;;;14.28;47.62;100879.48;682609;1262;138282;-85
2023/03/17 13:27:34;;;;;;;31.80;15.00;;;;;;;14.71;46.96;100876.98;682526;1262;138929;-81
2023/03/17 13:43:05;;;;;;;16.10;8.80;;;;;;;15.29;46.33;100867.04;682488;1259;138609;-80
2023/03/17 13:58:08;;;;;;;20.60;8.60;;;;;;;17.71;44.01;100862.18;682408;1263;138356;-83
2023/03/17 14:13:20;;;;;;;20.40;9.60;;;;;;;21.99;39.02;100884.17;682446;1265;138841;-83
2023/03/17 14:28:30;;;;;;;13.40;7.80;;;;;;;24.23;35.35;100854.73;682327;1263;138124;-82
2023/03/17 14:43:34;;;;;;;18.40;10.60;;;;;;;23.89;34.85;100844.77;682522;1265;138579;-80
2023/03/17 14:58:46;;;;;;;14.10;6.80;;;;;;;21.48;35.93;100818.11;682508;1260;138508;-84
2023/03/17 15:13:55;;;;;;;16.30;10.30;;;;;;;18.67;37.19;100812.81;682538;1263;138417;-82
2023/03/17 15:28:59;;;;;;;25.70;13.30;;;;;;;15.61;39.90;100790.81;682568;1260;138489;-83
2023/03/17 15:44:03;;;;;;;39.70;20.30;;;;;;;13.82;43.19;100788.63;682066;1262;145590;-82
2023/03/17 15:59:07;;;;;;;50.40;22.90;;;;;;;13.48;44.62;100782.84;682404;1263;138447;-83
2023/03/17 16:14:11;;;;;;;47.70;18.90;;;;;;;13.07;44.82;100798.29;682483;1264;138613;-82
2023/03/17 16:29:16;;;;;;;42.50;23.20;;;;;;;12.42;45.68;100798.08;682720;1260;138373;-84
2023/03/17 16:44:20;;;;;;;44.70;23.70;;;;;;;11.65;47.48;100797.02;682315;1263;138140;-84
2023/03/17 16:59:28;;;;;;;203.50;99.20;;;;;;;11.08;48.73;100787.73;682561;1264;138659;-84
2023/03/17 17:14:31;;;;;;;26.60;15.70;;;;;;;10.55;50.28;100779.42;682376;1264;138605;-86
2023/03/17 17:29:35;;;;;;;31.70;17.10;;;;;;;10.16;51.31;100777.42;682565;1263;138483;-84
2023/03/17 17:44:39;;;;;;;24.70;13.00;;;;;;;9.90;51.90;100786.27;682328;1260;138062;-85
2023/03/17 17:59:42;;;;;;;83.30;29.20;;;;;;;9.65;52.54;100789.01;682365;1264;137968;-82
2023/03/17 18:14:46;;;;;;;29.30;14.70;;;;;;;9.48;52.94;100780.34;682354;1264;137894;-83
2023/03/17 18:29:50;;;;;;;45.00;19.10;;;;;;;9.35;52.79;100775.23;682361;1263;138242;-82
2023/03/17 18:44:54;;;;;;;24.90;13.00;;;;;;;9.24;52.78;100775.35;682221;1263;138141;-82
2023/03/17 18:59:58;;;;;;;26.70;14.30;;;;;;;9.09;52.95;100769.45;682466;1262;138502;-85
2023/03/17 19:15:03;;;;;;;53.50;23.40;;;;;;;8.96;53.49;100770.27;682233;1260;137919;-82
2023/03/17 19:30:07;;;;;;;33.80;15.80;;;;;;;8.81;53.85;100759.96;682512;1263;137980;-82
2023/03/17 19:45:11;;;;;;;41.40;21.80;;;;;;;8.76;53.85;100773.23;682300;1260;137942;-82
2023/03/17 20:00:17;;;;;;;42.40;20.10;;;;;;;8.66;53.88;100764.92;682681;1263;138097;-83
2023/03/17 20:15:23;;;;;;;75.10;35.90;;;;;;;8.55;54.16;100762.92;682455;1259;138293;-81
2023/03/17 20:30:50;;;;;;;25.30;15.00;;;;;;;8.43;54.31;100756.89;682324;1264;138001;-83
2023/03/17 20:45:56;;;;;;;27.20;14.20;;;;;;;8.24;54.79;100761.19;682188;1262;138064;-83
2023/03/17 21:01:00;;;;;;;28.70;13.00;;;;;;;8.17;55.25;100763.98;682309;1262;138036;-82
2023/03/17 21:16:04;;;;;;;45.60;20.50;;;;;;;8.05;55.26;100753.69;682139;1260;138344;-83
2023/03/17 21:31:16;;;;;;;29.40;14.60;;;;;;;7.88;55.73;100740.38;682298;1264;138194;-83
2023/03/17 21:46:19;;;;;;;61.60;23.50;;;;;;;7.88;55.75;100734.13;682634;1263;137798;-83
2023/03/17 22:01:23;;;;;;;38.80;15.40;;;;;;;7.91;55.61;100722.61;682583;1274;138832;-83
2023/03/17 22:16:26;;;;;;;39.40;17.40;;;;;;;7.87;55.62;100720.93;682690;1275;137993;-80
2023/03/17 22:31:30;;;;;;;46.30;18.90;;;;;;;7.91;55.10;100709.89;682584;1259;138069;-82
2023/03/17 22:46:39;;;;;;;20.70;10.60;;;;;;;7.96;54.34;100707.05;682639;1263;137929;-82
2023/03/17 23:01:44;;;;;;;28.40;12.80;;;;;;;8.01;53.99;100705.51;682700;1260;138225;-80
2023/03/17 23:16:48;;;;;;;53.60;20.70;;;;;;;8.06;53.39;100700.98;682408;1262;138474;-82
2023/03/17 23:31:52;;;;;;;23.70;11.10;;;;;;;8.11;53.07;100693.46;682509;1260;138166;-81
2023/03/17 23:46:55;;;;;;;54.10;20.20;;;;;;;8.15;52.98;100682.04;682593;1259;138998;-80
